sensor_id;sensor_type;location;lat;lon;timestamp;temperature;humidity
70826;SHT31;58446;41.490;22.098;2023-02-28T00:00:28;12.65;64.85
70826;SHT31;58446;41.490;22.098;2023-02-28T00:02:53;12.59;64.89
70826;SHT31;58446;41.490;22.098;2023-02-28T00:05:21;12.69;64.70
70826;SHT31;58446;41.490;22.098;2023-02-28T00:07:49;12.56;64.89
70826;SHT31;58446;41.490;22.098;2023-02-28T00:10:18;12.48;65.33
70826;SHT31;58446;41.490;22.098;2023-02-28T00:12:47;12.38;65.57
70826;SHT31;58446;41.490;22.098;2023-02-28T00:15:13;12.32;65.71
70826;SHT31;58446;41.490;22.098;2023-02-28T00:17:39;12.24;66.14
70826;SHT31;58446;41.490;22.098;2023-02-28T00:20:06;12.29;66.03
70826;SHT31;58446;41.490;22.098;2023-02-28T00:22:40;12.24;66.25
70826;SHT31;58446;41.490;22.098;2023-02-28T00:25:07;12.36;66.17
70826;SHT31;58446;41.490;22.098;2023-02-28T00:27:34;12.60;65.19
70826;SHT31;58446;41.490;22.098;2023-02-28T00:30:00;12.65;65.30
70826;SHT31;58446;41.490;22.098;2023-02-28T00:32:26;12.72;65.18
70826;SHT31;58446;41.490;22.098;2023-02-28T00:34:52;12.58;65.59
70826;SHT31;58446;41.490;22.098;2023-02-28T00:37:17;12.50;65.75
70826;SHT31;58446;41.490;22.098;2023-02-28T00:39:43;12.50;65.90
70826;SHT31;58446;41.490;22.098;2023-02-28T00:42:09;12.34;66.70
70826;SHT31;58446;41.490;22.098;2023-02-28T00:44:34;12.18;67.54
70826;SHT31;58446;41.490;22.098;2023-02-28T00:47:00;12.15;67.35
70826;SHT31;58446;41.490;22.098;2023-02-28T00:49:26;12.10;67.72
70826;SHT31;58446;41.490;22.098;2023-02-28T00:51:54;11.86;68.73
70826;SHT31;58446;41.490;22.098;2023-02-28T00:54:20;12.17;67.69
70826;SHT31;58446;41.490;22.098;2023-02-28T00:56:45;12.28;66.88
70826;SHT31;58446;41.490;22.098;2023-02-28T00:59:12;12.05;67.08
70826;SHT31;58446;41.490;22.098;2023-02-28T01:01:38;12.14;67.50
70826;SHT31;58446;41.490;22.098;2023-02-28T01:04:04;12.21;67.12
70826;SHT31;58446;41.490;22.098;2023-02-28T01:06:30;12.38;66.70
70826;SHT31;58446;41.490;22.098;2023-02-28T01:08:57;12.45;66.43
70826;SHT31;58446;41.490;22.098;2023-02-28T01:11:23;12.49;66.32
70826;SHT31;58446;41.490;22.098;2023-02-28T01:13:49;12.39;66.09
70826;SHT31;58446;41.490;22.098;2023-02-28T01:16:15;12.34;66.67
70826;SHT31;58446;41.490;22.098;2023-02-28T01:18:41;12.29;66.57
70826;SHT31;58446;41.490;22.098;2023-02-28T01:21:09;11.90;67.09
70826;SHT31;58446;41.490;22.098;2023-02-28T01:23:35;12.21;66.96
70826;SHT31;58446;41.490;22.098;2023-02-28T01:26:09;11.80;67.72
70826;SHT31;58446;41.490;22.098;2023-02-28T01:28:36;12.04;67.25
70826;SHT31;58446;41.490;22.098;2023-02-28T01:31:02;12.05;66.78
70826;SHT31;58446;41.490;22.098;2023-02-28T01:33:28;12.11;66.68
70826;SHT31;58446;41.490;22.098;2023-02-28T01:36:12;11.73;67.44
70826;SHT31;58446;41.490;22.098;2023-02-28T01:38:38;11.78;67.33
70826;SHT31;58446;41.490;22.098;2023-02-28T01:41:04;11.97;67.20
70826;SHT31;58446;41.490;22.098;2023-02-28T01:43:32;11.76;66.91
70826;SHT31;58446;41.490;22.098;2023-02-28T01:45:59;11.88;66.99
70826;SHT31;58446;41.490;22.098;2023-02-28T01:48:27;11.86;66.45
70826;SHT31;58446;41.490;22.098;2023-02-28T01:50:57;11.97;66.42
70826;SHT31;58446;41.490;22.098;2023-02-28T01:53:31;11.98;66.94
70826;SHT31;58446;41.490;22.098;2023-02-28T01:55:57;11.65;67.25
70826;SHT31;58446;41.490;22.098;2023-02-28T01:58:23;11.29;68.53
70826;SHT31;58446;41.490;22.098;2023-02-28T02:00:49;11.71;67.86
70826;SHT31;58446;41.490;22.098;2023-02-28T02:03:17;11.59;67.73
70826;SHT31;58446;41.490;22.098;2023-02-28T02:05:47;11.69;68.00
70826;SHT31;58446;41.490;22.098;2023-02-28T02:08:22;11.78;67.25
70826;SHT31;58446;41.490;22.098;2023-02-28T02:10:55;11.74;66.89
70826;SHT31;58446;41.490;22.098;2023-02-28T02:18:33;11.87;67.12
70826;SHT31;58446;41.490;22.098;2023-02-28T02:31:55;11.93;66.00
70826;SHT31;58446;41.490;22.098;2023-02-28T02:40:17;11.95;66.20
70826;SHT31;58446;41.490;22.098;2023-02-28T02:43:02;12.05;66.02
70826;SHT31;58446;41.490;22.098;2023-02-28T02:45:34;11.73;65.85
70826;SHT31;58446;41.490;22.098;2023-02-28T02:48:04;12.04;66.02
70826;SHT31;58446;41.490;22.098;2023-02-28T02:50:45;12.15;65.48
70826;SHT31;58446;41.490;22.098;2023-02-28T02:53:12;11.83;65.99
70826;SHT31;58446;41.490;22.098;2023-02-28T02:55:41;11.98;65.99
70826;SHT31;58446;41.490;22.098;2023-02-28T02:58:13;11.93;65.67
70826;SHT31;58446;41.490;22.098;2023-02-28T03:00:43;12.04;65.45
70826;SHT31;58446;41.490;22.098;2023-02-28T03:03:12;11.86;66.03
70826;SHT31;58446;41.490;22.098;2023-02-28T03:05:48;11.69;66.81
70826;SHT31;58446;41.490;22.098;2023-02-28T03:08:15;11.81;66.19
70826;SHT31;58446;41.490;22.098;2023-02-28T03:10:46;11.90;66.12
70826;SHT31;58446;41.490;22.098;2023-02-28T03:13:42;11.88;65.89
70826;SHT31;58446;41.490;22.098;2023-02-28T03:21:36;12.02;65.41
70826;SHT31;58446;41.490;22.098;2023-02-28T03:24:11;11.73;66.31
70826;SHT31;58446;41.490;22.098;2023-02-28T03:26:46;11.70;66.10
70826;SHT31;58446;41.490;22.098;2023-02-28T03:29:26;11.53;65.48
70826;SHT31;58446;41.490;22.098;2023-02-28T03:34:47;11.73;65.97
70826;SHT31;58446;41.490;22.098;2023-02-28T03:37:18;11.78;65.90
70826;SHT31;58446;41.490;22.098;2023-02-28T03:39:48;11.76;65.93
70826;SHT31;58446;41.490;22.098;2023-02-28T03:42:21;11.37;65.72
70826;SHT31;58446;41.490;22.098;2023-02-28T03:44:57;11.70;66.14
70826;SHT31;58446;41.490;22.098;2023-02-28T03:50:11;11.84;65.44
70826;SHT31;58446;41.490;22.098;2023-02-28T03:52:49;11.87;65.43
70826;SHT31;58446;41.490;22.098;2023-02-28T03:55:16;11.60;65.87
70826;SHT31;58446;41.490;22.098;2023-02-28T04:00:49;11.87;65.29
70826;SHT31;58446;41.490;22.098;2023-02-28T04:03:16;11.81;65.56
70826;SHT31;58446;41.490;22.098;2023-02-28T04:05:52;11.33;66.00
70826;SHT31;58446;41.490;22.098;2023-02-28T04:08:19;11.30;66.27
70826;SHT31;58446;41.490;22.098;2023-02-28T04:10:48;11.06;66.88
70826;SHT31;58446;41.490;22.098;2023-02-28T04:13:16;11.19;67.77
70826;SHT31;58446;41.490;22.098;2023-02-28T04:15:41;11.53;66.79
70826;SHT31;58446;41.490;22.098;2023-02-28T04:18:07;11.62;66.41
70826;SHT31;58446;41.490;22.098;2023-02-28T04:20:33;11.67;66.34
70826;SHT31;58446;41.490;22.098;2023-02-28T04:22:59;10.98;67.55
70826;SHT31;58446;41.490;22.098;2023-02-28T04:25:24;11.53;66.83
70826;SHT31;58446;41.490;22.098;2023-02-28T04:27:50;11.50;66.38
70826;SHT31;58446;41.490;22.098;2023-02-28T04:30:16;11.49;66.99
70826;SHT31;58446;41.490;22.098;2023-02-28T04:32:41;11.60;66.78
70826;SHT31;58446;41.490;22.098;2023-02-28T04:35:07;11.52;66.58
70826;SHT31;58446;41.490;22.098;2023-02-28T04:37:33;11.62;66.42
70826;SHT31;58446;41.490;22.098;2023-02-28T04:40:00;11.39;67.44
70826;SHT31;58446;41.490;22.098;2023-02-28T04:42:26;11.15;67.88
70826;SHT31;58446;41.490;22.098;2023-02-28T04:44:52;11.33;67.24
70826;SHT31;58446;41.490;22.098;2023-02-28T04:47:18;11.42;67.43
70826;SHT31;58446;41.490;22.098;2023-02-28T04:49:43;11.32;67.78
70826;SHT31;58446;41.490;22.098;2023-02-28T04:52:09;11.16;68.30
70826;SHT31;58446;41.490;22.098;2023-02-28T04:54:35;11.05;68.24
70826;SHT31;58446;41.490;22.098;2023-02-28T04:57:01;11.02;68.00
70826;SHT31;58446;41.490;22.098;2023-02-28T04:59:27;11.19;67.57
70826;SHT31;58446;41.490;22.098;2023-02-28T05:01:52;11.30;67.66
70826;SHT31;58446;41.490;22.098;2023-02-28T05:04:18;11.05;67.70
70826;SHT31;58446;41.490;22.098;2023-02-28T05:06:44;10.88;68.27
70826;SHT31;58446;41.490;22.098;2023-02-28T05:09:09;11.12;68.44
70826;SHT31;58446;41.490;22.098;2023-02-28T05:11:39;11.15;68.25
70826;SHT31;58446;41.490;22.098;2023-02-28T05:14:07;11.26;67.87
70826;SHT31;58446;41.490;22.098;2023-02-28T05:16:34;11.26;67.95
70826;SHT31;58446;41.490;22.098;2023-02-28T05:19:00;11.29;67.48
70826;SHT31;58446;41.490;22.098;2023-02-28T05:21:35;11.35;67.20
70826;SHT31;58446;41.490;22.098;2023-02-28T05:24:03;11.18;67.16
70826;SHT31;58446;41.490;22.098;2023-02-28T05:26:30;11.18;67.69
70826;SHT31;58446;41.490;22.098;2023-02-28T05:28:56;11.44;67.20
70826;SHT31;58446;41.490;22.098;2023-02-28T05:31:22;11.52;66.88
70826;SHT31;58446;41.490;22.098;2023-02-28T05:33:48;11.55;66.85
70826;SHT31;58446;41.490;22.098;2023-02-28T05:36:14;11.57;66.62
70826;SHT31;58446;41.490;22.098;2023-02-28T05:38:40;11.67;66.36
70826;SHT31;58446;41.490;22.098;2023-02-28T05:41:09;11.65;66.39
70826;SHT31;58446;41.490;22.098;2023-02-28T05:43:36;11.36;66.76
70826;SHT31;58446;41.490;22.098;2023-02-28T05:46:06;11.18;67.42
70826;SHT31;58446;41.490;22.098;2023-02-28T05:48:36;11.43;67.02
70826;SHT31;58446;41.490;22.098;2023-02-28T05:51:03;11.42;67.06
70826;SHT31;58446;41.490;22.098;2023-02-28T05:53:29;11.56;66.67
70826;SHT31;58446;41.490;22.098;2023-02-28T05:55:55;11.49;66.94
70826;SHT31;58446;41.490;22.098;2023-02-28T05:58:21;11.63;66.63
70826;SHT31;58446;41.490;22.098;2023-02-28T06:00:47;11.59;66.77
70826;SHT31;58446;41.490;22.098;2023-02-28T06:03:13;11.57;66.91
70826;SHT31;58446;41.490;22.098;2023-02-28T06:05:39;11.55;67.02
70826;SHT31;58446;41.490;22.098;2023-02-28T06:08:05;11.57;67.11
70826;SHT31;58446;41.490;22.098;2023-02-28T06:10:34;11.43;67.72
70826;SHT31;58446;41.490;22.098;2023-02-28T06:13:01;11.39;67.67
70826;SHT31;58446;41.490;22.098;2023-02-28T06:15:30;11.46;67.74
70826;SHT31;58446;41.490;22.098;2023-02-28T06:17:57;11.46;67.83
70826;SHT31;58446;41.490;22.098;2023-02-28T06:20:24;11.52;67.93
70826;SHT31;58446;41.490;22.098;2023-02-28T06:22:51;11.53;67.68
70826;SHT31;58446;41.490;22.098;2023-02-28T06:25:17;11.80;66.74
70826;SHT31;58446;41.490;22.098;2023-02-28T06:27:43;11.46;67.84
70826;SHT31;58446;41.490;22.098;2023-02-28T06:30:10;11.47;68.28
70826;SHT31;58446;41.490;22.098;2023-02-28T06:32:36;11.43;68.25
70826;SHT31;58446;41.490;22.098;2023-02-28T06:35:02;11.12;69.08
70826;SHT31;58446;41.490;22.098;2023-02-28T06:37:28;11.16;68.90
70826;SHT31;58446;41.490;22.098;2023-02-28T06:39:55;11.29;68.82
70826;SHT31;58446;41.490;22.098;2023-02-28T06:42:24;11.33;68.60
70826;SHT31;58446;41.490;22.098;2023-02-28T06:44:55;11.39;68.44
70826;SHT31;58446;41.490;22.098;2023-02-28T06:47:21;11.39;68.43
70826;SHT31;58446;41.490;22.098;2023-02-28T06:49:47;11.20;68.51
70826;SHT31;58446;41.490;22.098;2023-02-28T06:52:14;11.29;68.41
70826;SHT31;58446;41.490;22.098;2023-02-28T06:54:40;11.49;67.95
70826;SHT31;58446;41.490;22.098;2023-02-28T06:57:06;11.20;67.98
70826;SHT31;58446;41.490;22.098;2023-02-28T06:59:32;10.89;69.55
70826;SHT31;58446;41.490;22.098;2023-02-28T07:01:58;11.02;68.98
70826;SHT31;58446;41.490;22.098;2023-02-28T07:04:23;11.05;69.27
70826;SHT31;58446;41.490;22.098;2023-02-28T07:06:49;10.98;69.40
70826;SHT31;58446;41.490;22.098;2023-02-28T07:09:15;11.05;69.13
70826;SHT31;58446;41.490;22.098;2023-02-28T07:11:41;11.06;68.90
70826;SHT31;58446;41.490;22.098;2023-02-28T07:14:08;11.02;69.10
70826;SHT31;58446;41.490;22.098;2023-02-28T07:16:34;10.74;69.63
70826;SHT31;58446;41.490;22.098;2023-02-28T07:19:00;10.78;69.46
70826;SHT31;58446;41.490;22.098;2023-02-28T07:21:26;10.71;70.04
70826;SHT31;58446;41.490;22.098;2023-02-28T07:23:51;10.79;69.58
70826;SHT31;58446;41.490;22.098;2023-02-28T07:26:18;11.26;68.43
70826;SHT31;58446;41.490;22.098;2023-02-28T07:28:46;11.33;68.09
70826;SHT31;58446;41.490;22.098;2023-02-28T07:31:13;11.25;68.09
70826;SHT31;58446;41.490;22.098;2023-02-28T07:33:39;11.42;67.87
70826;SHT31;58446;41.490;22.098;2023-02-28T07:36:25;11.26;68.56
70826;SHT31;58446;41.490;22.098;2023-02-28T07:38:51;11.36;68.27
70826;SHT31;58446;41.490;22.098;2023-02-28T07:41:21;11.14;69.38
70826;SHT31;58446;41.490;22.098;2023-02-28T07:43:47;10.98;69.19
70826;SHT31;58446;41.490;22.098;2023-02-28T07:46:15;11.09;68.82
70826;SHT31;58446;41.490;22.098;2023-02-28T07:48:41;11.32;68.43
70826;SHT31;58446;41.490;22.098;2023-02-28T07:51:07;11.53;67.62
70826;SHT31;58446;41.490;22.098;2023-02-28T07:53:32;11.70;67.19
70826;SHT31;58446;41.490;22.098;2023-02-28T07:56:00;11.62;67.27
70826;SHT31;58446;41.490;22.098;2023-02-28T07:58:27;11.70;67.07
70826;SHT31;58446;41.490;22.098;2023-02-28T08:00:53;11.78;66.85
70826;SHT31;58446;41.490;22.098;2023-02-28T08:03:21;11.83;66.63
70826;SHT31;58446;41.490;22.098;2023-02-28T08:05:47;11.91;66.33
70826;SHT31;58446;41.490;22.098;2023-02-28T08:08:13;11.71;67.11
70826;SHT31;58446;41.490;22.098;2023-02-28T08:10:39;11.66;67.42
70826;SHT31;58446;41.490;22.098;2023-02-28T08:13:05;11.65;67.65
70826;SHT31;58446;41.490;22.098;2023-02-28T08:15:30;11.52;67.80
70826;SHT31;58446;41.490;22.098;2023-02-28T08:17:56;11.73;67.32
70826;SHT31;58446;41.490;22.098;2023-02-28T08:20:23;11.83;66.89
70826;SHT31;58446;41.490;22.098;2023-02-28T08:22:49;11.95;66.52
70826;SHT31;58446;41.490;22.098;2023-02-28T08:25:15;12.02;66.30
70826;SHT31;58446;41.490;22.098;2023-02-28T08:27:41;11.98;66.23
70826;SHT31;58446;41.490;22.098;2023-02-28T08:30:07;11.74;67.09
70826;SHT31;58446;41.490;22.098;2023-02-28T08:32:33;11.47;68.27
70826;SHT31;58446;41.490;22.098;2023-02-28T08:34:59;11.63;67.81
70826;SHT31;58446;41.490;22.098;2023-02-28T08:37:25;11.83;67.10
70826;SHT31;58446;41.490;22.098;2023-02-28T08:39:51;11.86;66.90
70826;SHT31;58446;41.490;22.098;2023-02-28T08:42:17;11.81;67.51
70826;SHT31;58446;41.490;22.098;2023-02-28T08:44:42;11.80;67.78
70826;SHT31;58446;41.490;22.098;2023-02-28T08:47:08;11.81;67.86
70826;SHT31;58446;41.490;22.098;2023-02-28T08:49:33;11.76;68.06
70826;SHT31;58446;41.490;22.098;2023-02-28T08:51:59;11.77;67.60
70826;SHT31;58446;41.490;22.098;2023-02-28T08:54:25;11.63;67.64
70826;SHT31;58446;41.490;22.098;2023-02-28T08:56:50;11.25;68.49
70826;SHT31;58446;41.490;22.098;2023-02-28T08:59:16;11.09;69.34
70826;SHT31;58446;41.490;22.098;2023-02-28T09:01:41;11.35;69.47
70826;SHT31;58446;41.490;22.098;2023-02-28T09:04:09;11.27;70.09
70826;SHT31;58446;41.490;22.098;2023-02-28T09:06:36;11.42;69.70
70826;SHT31;58446;41.490;22.098;2023-02-28T09:09:02;11.50;69.11
70826;SHT31;58446;41.490;22.098;2023-02-28T09:11:29;11.86;67.63
70826;SHT31;58446;41.490;22.098;2023-02-28T09:13:55;11.99;67.06
70826;SHT31;58446;41.490;22.098;2023-02-28T09:16:21;12.10;66.85
70826;SHT31;58446;41.490;22.098;2023-02-28T09:18:47;12.13;66.45
70826;SHT31;58446;41.490;22.098;2023-02-28T09:21:15;12.15;66.83
70826;SHT31;58446;41.490;22.098;2023-02-28T09:23:45;12.08;66.78
70826;SHT31;58446;41.490;22.098;2023-02-28T09:26:24;12.13;66.79
70826;SHT31;58446;41.490;22.098;2023-02-28T09:28:51;12.05;67.17
70826;SHT31;58446;41.490;22.098;2023-02-28T09:31:21;12.08;66.83
70826;SHT31;58446;41.490;22.098;2023-02-28T09:33:49;12.21;66.41
70826;SHT31;58446;41.490;22.098;2023-02-28T09:36:15;12.28;66.23
70826;SHT31;58446;41.490;22.098;2023-02-28T09:38:41;12.10;67.59
70826;SHT31;58446;41.490;22.098;2023-02-28T09:41:16;12.02;67.50
70826;SHT31;58446;41.490;22.098;2023-02-28T09:43:46;11.60;67.82
70826;SHT31;58446;41.490;22.098;2023-02-28T09:46:38;11.33;69.52
70826;SHT31;58446;41.490;22.098;2023-02-28T09:49:14;11.22;69.86
70826;SHT31;58446;41.490;22.098;2023-02-28T09:54:24;11.23;69.71
70826;SHT31;58446;41.490;22.098;2023-02-28T09:56:53;10.99;70.53
70826;SHT31;58446;41.490;22.098;2023-02-28T10:02:38;11.40;70.16
70826;SHT31;58446;41.490;22.098;2023-02-28T10:05:09;11.78;68.72
70826;SHT31;58446;41.490;22.098;2023-02-28T10:16:25;12.38;67.22
70826;SHT31;58446;41.490;22.098;2023-02-28T10:18:58;12.48;66.80
70826;SHT31;58446;41.490;22.098;2023-02-28T10:21:37;12.42;67.16
70826;SHT31;58446;41.490;22.098;2023-02-28T10:24:30;12.49;67.32
70826;SHT31;58446;41.490;22.098;2023-02-28T10:27:25;12.38;68.66
70826;SHT31;58446;41.490;22.098;2023-02-28T10:29:57;12.39;68.17
70826;SHT31;58446;41.490;22.098;2023-02-28T10:32:25;12.34;68.90
70826;SHT31;58446;41.490;22.098;2023-02-28T10:35:16;12.55;67.27
70826;SHT31;58446;41.490;22.098;2023-02-28T10:37:46;12.58;68.03
70826;SHT31;58446;41.490;22.098;2023-02-28T10:45:28;12.80;67.85
70826;SHT31;58446;41.490;22.098;2023-02-28T10:47:56;12.89;66.87
70826;SHT31;58446;41.490;22.098;2023-02-28T10:50:44;12.90;66.29
70826;SHT31;58446;41.490;22.098;2023-02-28T10:56:05;12.86;66.95
70826;SHT31;58446;41.490;22.098;2023-02-28T10:58:42;12.85;67.57
70826;SHT31;58446;41.490;22.098;2023-02-28T11:01:39;12.97;66.40
70826;SHT31;58446;41.490;22.098;2023-02-28T11:07:04;13.07;67.93
70826;SHT31;58446;41.490;22.098;2023-02-28T11:09:39;12.99;67.69
70826;SHT31;58446;41.490;22.098;2023-02-28T11:12:07;13.13;66.38
70826;SHT31;58446;41.490;22.098;2023-02-28T11:14:47;13.18;66.59
70826;SHT31;58446;41.490;22.098;2023-02-28T11:17:28;13.11;66.96
70826;SHT31;58446;41.490;22.098;2023-02-28T11:20:18;13.21;66.19
70826;SHT31;58446;41.490;22.098;2023-02-28T11:22:46;13.23;65.99
70826;SHT31;58446;41.490;22.098;2023-02-28T11:25:51;13.20;66.83
70826;SHT31;58446;41.490;22.098;2023-02-28T11:28:27;13.33;66.23
70826;SHT31;58446;41.490;22.098;2023-02-28T11:33:32;13.30;66.01
70826;SHT31;58446;41.490;22.098;2023-02-28T11:36:10;13.23;66.60
70826;SHT31;58446;41.490;22.098;2023-02-28T11:38:37;13.36;66.80
70826;SHT31;58446;41.490;22.098;2023-02-28T11:44:02;13.36;66.28
70826;SHT31;58446;41.490;22.098;2023-02-28T11:49:34;13.28;66.47
70826;SHT31;58446;41.490;22.098;2023-02-28T11:52:06;13.20;67.51
70826;SHT31;58446;41.490;22.098;2023-02-28T11:57:56;13.17;66.72
70826;SHT31;58446;41.490;22.098;2023-02-28T12:00:40;13.11;66.90
70826;SHT31;58446;41.490;22.098;2023-02-28T12:03:31;12.92;67.94
70826;SHT31;58446;41.490;22.098;2023-02-28T12:06:28;12.96;67.71
70826;SHT31;58446;41.490;22.098;2023-02-28T12:14:33;13.03;67.52
70826;SHT31;58446;41.490;22.098;2023-02-28T12:17:17;12.89;68.56
70826;SHT31;58446;41.490;22.098;2023-02-28T12:22:29;13.04;68.14
70826;SHT31;58446;41.490;22.098;2023-02-28T12:27:39;13.20;68.46
70826;SHT31;58446;41.490;22.098;2023-02-28T12:30:25;13.11;68.62
70826;SHT31;58446;41.490;22.098;2023-02-28T12:33:04;13.07;69.24
70826;SHT31;58446;41.490;22.098;2023-02-28T12:38:14;13.30;67.19
70826;SHT31;58446;41.490;22.098;2023-02-28T12:43:15;13.18;67.56
70826;SHT31;58446;41.490;22.098;2023-02-28T12:48:43;13.17;67.74
70826;SHT31;58446;41.490;22.098;2023-02-28T12:51:12;13.13;68.67
70826;SHT31;58446;41.490;22.098;2023-02-28T12:56:28;13.27;67.71
70826;SHT31;58446;41.490;22.098;2023-02-28T13:04:58;13.18;68.65
70826;SHT31;58446;41.490;22.098;2023-02-28T13:10:24;12.80;68.91
70826;SHT31;58446;41.490;22.098;2023-02-28T13:12:52;12.76;69.36
70826;SHT31;58446;41.490;22.098;2023-02-28T13:15:26;12.75;69.57
70826;SHT31;58446;41.490;22.098;2023-02-28T13:17:56;12.86;69.16
70826;SHT31;58446;41.490;22.098;2023-02-28T13:20:34;12.85;70.02
70826;SHT31;58446;41.490;22.098;2023-02-28T13:23:00;12.75;70.47
70826;SHT31;58446;41.490;22.098;2023-02-28T13:28:00;12.99;69.21
70826;SHT31;58446;41.490;22.098;2023-02-28T13:36:27;12.80;69.74
70826;SHT31;58446;41.490;22.098;2023-02-28T13:38:58;12.97;69.46
70826;SHT31;58446;41.490;22.098;2023-02-28T13:44:22;12.87;69.63
70826;SHT31;58446;41.490;22.098;2023-02-28T13:51:49;12.53;70.78
70826;SHT31;58446;41.490;22.098;2023-02-28T14:05:32;12.60;70.87
70826;SHT31;58446;41.490;22.098;2023-02-28T14:08:04;12.77;70.05
70826;SHT31;58446;41.490;22.098;2023-02-28T14:10:33;12.97;69.42
70826;SHT31;58446;41.490;22.098;2023-02-28T14:13:11;13.02;69.60
70826;SHT31;58446;41.490;22.098;2023-02-28T14:15:44;13.03;69.58
70826;SHT31;58446;41.490;22.098;2023-02-28T14:18:30;12.92;69.64
70826;SHT31;58446;41.490;22.098;2023-02-28T14:21:26;12.95;69.91
70826;SHT31;58446;41.490;22.098;2023-02-28T14:32:33;13.10;69.22
70826;SHT31;58446;41.490;22.098;2023-02-28T14:37:52;13.11;69.32
70826;SHT31;58446;41.490;22.098;2023-02-28T14:40:27;13.16;69.08
70826;SHT31;58446;41.490;22.098;2023-02-28T14:42:58;13.16;69.00
70826;SHT31;58446;41.490;22.098;2023-02-28T14:45:30;13.13;69.91
70826;SHT31;58446;41.490;22.098;2023-02-28T14:47:57;13.11;69.51
70826;SHT31;58446;41.490;22.098;2023-02-28T14:50:29;13.16;69.25
70826;SHT31;58446;41.490;22.098;2023-02-28T14:52:56;13.23;68.83
70826;SHT31;58446;41.490;22.098;2023-02-28T14:55:44;13.26;68.84
70826;SHT31;58446;41.490;22.098;2023-02-28T14:58:31;13.26;68.84
70826;SHT31;58446;41.490;22.098;2023-02-28T15:00:59;13.14;69.80
70826;SHT31;58446;41.490;22.098;2023-02-28T15:03:37;13.04;69.91
70826;SHT31;58446;41.490;22.098;2023-02-28T15:06:14;13.10;69.77
70826;SHT31;58446;41.490;22.098;2023-02-28T15:08:40;13.00;71.22
70826;SHT31;58446;41.490;22.098;2023-02-28T15:11:14;12.92;71.42
70826;SHT31;58446;41.490;22.098;2023-02-28T15:13:50;13.11;69.54
70826;SHT31;58446;41.490;22.098;2023-02-28T15:16:26;13.06;70.72
70826;SHT31;58446;41.490;22.098;2023-02-28T15:18:57;13.11;69.91
70826;SHT31;58446;41.490;22.098;2023-02-28T15:21:26;13.04;70.95
70826;SHT31;58446;41.490;22.098;2023-02-28T15:24:21;13.10;69.87
70826;SHT31;58446;41.490;22.098;2023-02-28T15:26:56;13.10;69.73
70826;SHT31;58446;41.490;22.098;2023-02-28T15:29:25;13.24;69.28
70826;SHT31;58446;41.490;22.098;2023-02-28T15:34:34;13.28;69.26
70826;SHT31;58446;41.490;22.098;2023-02-28T15:37:00;13.20;69.76
70826;SHT31;58446;41.490;22.098;2023-02-28T15:39:28;13.24;69.23
70826;SHT31;58446;41.490;22.098;2023-02-28T15:42:18;13.26;69.25
70826;SHT31;58446;41.490;22.098;2023-02-28T15:44:44;13.30;69.11
70826;SHT31;58446;41.490;22.098;2023-02-28T15:49:50;13.21;69.33
70826;SHT31;58446;41.490;22.098;2023-02-28T15:52:28;13.20;69.35
70826;SHT31;58446;41.490;22.098;2023-02-28T15:54:57;13.17;69.38
70826;SHT31;58446;41.490;22.098;2023-02-28T15:57:28;13.16;69.53
70826;SHT31;58446;41.490;22.098;2023-02-28T16:00:01;13.14;69.58
70826;SHT31;58446;41.490;22.098;2023-02-28T16:07:34;12.97;71.36
70826;SHT31;58446;41.490;22.098;2023-02-28T16:10:00;12.86;71.98
70826;SHT31;58446;41.490;22.098;2023-02-28T16:12:29;12.68;72.36
70826;SHT31;58446;41.490;22.098;2023-02-28T16:14:57;12.62;72.68
70826;SHT31;58446;41.490;22.098;2023-02-28T16:17:29;12.49;72.90
70826;SHT31;58446;41.490;22.098;2023-02-28T16:19:55;12.44;73.07
70826;SHT31;58446;41.490;22.098;2023-02-28T16:22:21;12.41;73.12
70826;SHT31;58446;41.490;22.098;2023-02-28T16:24:47;12.44;72.80
70826;SHT31;58446;41.490;22.098;2023-02-28T16:27:17;12.44;73.02
70826;SHT31;58446;41.490;22.098;2023-02-28T16:29:44;12.42;73.11
70826;SHT31;58446;41.490;22.098;2023-02-28T16:32:12;12.45;73.05
70826;SHT31;58446;41.490;22.098;2023-02-28T16:34:39;12.59;72.22
70826;SHT31;58446;41.490;22.098;2023-02-28T16:37:11;12.48;73.09
70826;SHT31;58446;41.490;22.098;2023-02-28T16:39:37;12.56;73.21
70826;SHT31;58446;41.490;22.098;2023-02-28T16:42:02;12.62;73.11
70826;SHT31;58446;41.490;22.098;2023-02-28T16:44:30;12.58;73.38
70826;SHT31;58446;41.490;22.098;2023-02-28T16:46:57;12.50;73.88
70826;SHT31;58446;41.490;22.098;2023-02-28T16:49:24;12.55;72.54
70826;SHT31;58446;41.490;22.098;2023-02-28T16:51:50;12.72;71.91
70826;SHT31;58446;41.490;22.098;2023-02-28T16:54:16;12.76;71.78
70826;SHT31;58446;41.490;22.098;2023-02-28T16:56:44;12.70;72.86
70826;SHT31;58446;41.490;22.098;2023-02-28T16:59:11;12.82;71.65
70826;SHT31;58446;41.490;22.098;2023-02-28T17:01:37;12.96;71.21
70826;SHT31;58446;41.490;22.098;2023-02-28T17:04:03;12.99;71.12
70826;SHT31;58446;41.490;22.098;2023-02-28T17:06:29;13.00;71.05
70826;SHT31;58446;41.490;22.098;2023-02-28T17:08:56;13.07;70.89
70826;SHT31;58446;41.490;22.098;2023-02-28T17:11:23;13.08;70.79
70826;SHT31;58446;41.490;22.098;2023-02-28T17:13:49;12.92;72.68
70826;SHT31;58446;41.490;22.098;2023-02-28T17:16:35;12.97;71.40
70826;SHT31;58446;41.490;22.098;2023-02-28T17:19:04;13.02;71.26
70826;SHT31;58446;41.490;22.098;2023-02-28T17:21:31;12.99;71.26
70826;SHT31;58446;41.490;22.098;2023-02-28T17:23:58;13.00;71.29
70826;SHT31;58446;41.490;22.098;2023-02-28T17:26:24;12.73;73.73
70826;SHT31;58446;41.490;22.098;2023-02-28T17:28:52;12.72;73.26
70826;SHT31;58446;41.490;22.098;2023-02-28T17:31:21;12.76;72.37
70826;SHT31;58446;41.490;22.098;2023-02-28T17:33:47;12.65;74.10
70826;SHT31;58446;41.490;22.098;2023-02-28T17:36:15;12.62;74.11
70826;SHT31;58446;41.490;22.098;2023-02-28T17:38:41;12.76;73.82
70826;SHT31;58446;41.490;22.098;2023-02-28T17:41:10;12.76;72.96
70826;SHT31;58446;41.490;22.098;2023-02-28T17:43:36;12.82;72.13
70826;SHT31;58446;41.490;22.098;2023-02-28T17:46:01;12.86;72.16
70826;SHT31;58446;41.490;22.098;2023-02-28T17:48:27;12.79;72.67
70826;SHT31;58446;41.490;22.098;2023-02-28T17:50:53;12.72;74.32
70826;SHT31;58446;41.490;22.098;2023-02-28T17:53:19;12.42;75.17
70826;SHT31;58446;41.490;22.098;2023-02-28T17:55:48;12.38;74.49
70826;SHT31;58446;41.490;22.098;2023-02-28T17:58:14;12.55;73.75
70826;SHT31;58446;41.490;22.098;2023-02-28T18:00:40;12.65;73.59
70826;SHT31;58446;41.490;22.098;2023-02-28T18:03:07;12.65;73.56